WARM SPRINGS (USACE) (WRS)

Elevation: 440' · RUSSIAN R basin · Operator: US Army Corps of Engineers

Provisional data, subject to change.
Query executed Sunday at 5:18:19   clock

Select a sensor type for a plot of data.
Note: Reservoir Flows are daily averages.

Earlier

Date RES ELE    STORAGE    RES CHG    TOC STO    ABV TOC    OUTFLOW    INFLOW    PPT INC    TEMP MN    TEMP MX    EVP PAN   
 FEET   AF   AF   AF   AF   CFS   CFS   INCHES   DEG F   DEG F   INCHES  
07/29/2016 444.05 227012 -226 245000 -17988 107 12 0.00 11 37 0.23
07/30/2016 443.94 226736 -276 245000 -18264 107 -13 0.00 10 34 0.23
07/31/2016 443.84 226486 -250 245000 -18514 108 1 0.00 12 32 0.22
08/01/2016 443.74 226236 -250 245000 -18764 106 -0 0.00 13 32 0.22
08/02/2016 443.66 226036 -- 245000 -- 107 25 0.00 13 33 0.22
08/03/2016 443.56 225786 -- 245000 -19214 106 -1 0.00 9 34 0.22
08/04/2016 443.47 225562 -224 245000 -19438 106 9 0.00 11 27 0.18
08/05/2016 443.37 225312 -250 245000 -19688 107 -3 0.00 12 28 0.19
08/06/2016 443.29 225113 -199 245000 -19887 106 24 0.00 11 31 0.21
08/07/2016 443.19 224864 -249 245000 -20136 106 -1 0.00 7 34 0.21
08/08/2016 443.10 224640 -224 245000 -20360 106 13 0.00 9 38 0.23
08/09/2016 442.99 224366 -274 245000 -20634 107 -12 0.00 11 36 0.22
08/10/2016 442.89 224118 -248 245000 -20882 106 -2 0.00 11 32 0.20
08/11/2016 442.79 223869 -249 245000 -21131 106 -1 0.00 11 32 0.21
08/12/2016 442.71 223671 -198 245000 -21329 106 25 0.00 11 36 0.22
08/13/2016 442.62 223447 -224 245000 -21553 107 12 0.00 9 37 0.22
08/14/2016 442.52 223200 -247 245000 -21800 106 -1 0.00 8 34 0.21
08/15/2016 442.42 222952 -248 245000 -22048 106 -2 0.00 11 32 0.20
08/16/2016 442.33 222729 -223 245000 -22271 106 11 0.00 11 35 0.21
08/17/2016 442.23 222482 -247 245000 -22518 106 -2 0.00 11 35 0.20
08/18/2016 442.13 222235 -247 245000 -22765 106 -2 0.00 13 33 0.20
08/19/2016 442.04 222012 -223 245000 -22988 106 9 0.00 12 30 0.18
08/20/2016 441.95 221790 -222 245000 -23210 106 10 0.00 13 31 0.19
08/21/2016 441.86 221568 -222 245000 -23432 106 9 0.00 13 31 0.17
08/22/2016 441.77 221347 -221 245000 -23653 103 7 0.00 12 30 0.17
08/23/2016 441.67 221100 -247 245000 -23900 103 -7 0.00 13 29 0.17
08/24/2016 441.59 220903 -197 245000 -24097 103 18 0.00 12 30 0.17
08/25/2016 441.50 220682 -221 245000 -24318 103 4 0.00 12 28 0.15
08/26/2016 441.41 220461 -221 245000 -24539 104 2 0.00 14 27 0.12
08/27/2016 441.32 220240 -221 245000 -- 104 3 0.00 12 28 0.13
08/28/2016 -- -- -- -- -- -- -- -- -- -- --

Later | Latest

Warning! This data is preliminary and subject to revision.

Show WRS Map | Plot WRS Data | 1 Month WRS Data | Real-Time WRS Data | WRS Info